Waltz, Michigan
Current Conditions -  °F | °C
As of 8:53 PM on Thursday 20 Nov 2014 (Local Time) from KDTW Reporting Station
Broken Clouds Broken Clouds  
Wind Chill: 11°   Ceiling: 6500
Heat Index: 20°   Visibility: 10mi
Dew Point: 11°   Wind: 7mph
Humidity: 68%   Direction: 260°W
Pressure: 30.12"   Gusts: NA
Location:  42.1166°N, 83.4023°W
Report Text: KDTW 210153Z 26006KT 10SM SCT035 BKN065 M07/M12 A3012 RMK AO2 SLP209 T10671117 $
Loading
Personal Weather Stations






























Interactive Weather Map New forecast layout! Learn more

10-Day Weather Forecast

Advertisements
Track Severe Weather on mobile